NCAR-RAP Real-Time Weather Data

Output produced by METARs form (21 May 2019  11:19 UTC)
found at http://weather.rap.ucar.edu/surface/
 
RJAA 211100Z 22007KT 190V250 9999 -SHRA FEW005 SCT010 BKN020 20/19 Q1001 BECMG 27008KT TEMPO FEW005 BKN008 RMK 1ST005 4CU010 5CU020 A2959
RJAA 211030Z 19005KT 160V230 9999 FEW004 SCT008 BKN020 20/20 Q1001 BECMG 27008KT
RJAA 211010Z 20008KT 160V240 7000 -SHRA FEW003 SCT015 BKN030 20/19 Q1001 RMK 1ST003 4CU015 7CU030 A2956
RJAA 211000Z 21007KT 170V250 3200 -SHRA BR FEW003 SCT006 BKN020 20/20 Q1000 TEMPO FEW005 BKN008 RMK 1ST003 3ST006 7CU020 A2956
RJAA 210930Z 18005KT 140V220 2200 SHRA BR FEW002 BKN006 BKN010 21/21 Q1000 NOSIG RMK 1ST002 6ST006 7CU010 A2955
RJAA 210900Z 14004KT 2000 R16R/P2000N R16L/P2000N SHRA BR FEW003 BKN006 BKN010 20/20 Q1000 NOSIG
RJAA 210830Z 13003KT 2400 SHRA BR FEW003 SCT004 BKN006 20/20 Q1000 NOSIG RMK 1ST003 3ST004 6ST006 A2954
RJAA 210813Z 14005KT 1800 R16R/2000N R16L/P2000N +SHRA BR FEW002 SCT004 BKN006 20/20 Q1000 RMK 1ST002 4ST004 6ST006 A2955
RJAA 210800Z 15004KT 120V180 2000 R16R/1600VP2000U R16L/2000N SHRA BR FEW002 SCT004 BKN006 20/20 Q1000 NOSIG RMK 1ST002 4ST004 6ST006 A2955
RJAA 210744Z VRB02KT 2400 R16R/P2000N R16L/2000N SHRA BR FEW002 SCT004 BKN010 20/20 Q1000 RMK 1ST002 3ST004 5CU010 A2954
RJAA 210730Z 17005KT 120V220 1300 R16R/2000N R16L/P2000N +SHRA BR SCT003 BKN010 BKN015 20/20 Q1000 TEMPO FEW005 BKN008
RJAA 210715Z 16005KT 120V200 1500 R16R/1800D R16L/P2000N +SHRA BR FEW003 BKN010 BKN020 20/20 Q1000 RMK 1ST003 5CU010 7CU020 A2954
RJAA 210700Z 17007KT 2000 R16R/2000N R16L/P2000N +SHRA BR FEW004 BKN008 BKN015 20/20 Q1000 NOSIG
RJAA 210646Z 18012KT 150V210 1600 R16R/2000N R16L/P2000N +SHRA BR FEW004 BKN008 BKN015 20/20 Q1000 RMK 1ST004 6ST008 7CU015 A2955
RJAA 210630Z 20011KT 150V240 1200 R16R/1600D R16L/2000N +SHRA BR FEW004 BKN008 BKN010 20/20 Q1001 WS R16L TEMPO 20015G25KT FEW003 BKN005
RJAA 210624Z 18015G25KT 1200 R16R/1500VP2000D R16L/2000N +SHRA BR FEW004 BKN006 BKN008 20/20 Q1001 RMK 1ST004 6ST006 7ST008 A2956
RJAA 210623Z 18016KT 1200 R16R/1800D R16L/2000N +SHRA BR FEW004 BKN006 BKN008 20/20 Q1001 WS R16R WS R16L RMK 1ST004 6ST006 7ST008 A2956 RI++
RJAA 210600Z 17017G27KT 1600 R16R/1900N R16L/1500VP2000D +SHRA BR FEW004 BKN006 BKN008 20/20 Q1000 TEMPO 1300 +SHRA BR FEW003 BKN005 RMK 1ST004 6ST006 7ST008 A2954
RJAA 210545Z 17017G27KT 2000 R16R/1500VP2000U R16L/P2000N +SHRA BR FEW004 BKN006 BKN008 20/20 Q1000 WS R16R WS R16L RMK 1ST004 6ST006 7ST008 A2956
RJAA 210535Z 17018KT 140V210 1500 R16R/P2000N R16L/P2000N +SHRA BR FEW004 BKN006 BKN008 20/20 Q1001 RMK 1ST004 5ST006 7ST008 A2956 RI++
RJAA 210530Z 17019G29KT 150V210 2500 SHRA BR FEW004 BKN006 BKN008 20/20 Q1001 TEMPO FEW003 BKN005
RJAA 210513Z 17020G32KT 150V210 2000 R16R/P2000N R16L/P2000N +SHRA BR FEW004 BKN006 BKN008 20/20 Q1001 WS R16R WS R16L RMK 1ST004 5ST006 7ST008 A2956
RJAA 210500Z 17022G32KT 140V200 3500 SHRA BR FEW004 BKN006 BKN008 20/19 Q1000 WS R16L TEMPO 3000 SHRA BR FEW003 BKN005
RJAA 210430Z 17020G30KT 4000 SHRA BR FEW004 BKN006 20/19 Q1001 WS R16L TEMPO 3000 SHRA BR FEW003 BKN005 RMK 1ST004 7ST006 A2956
RJAA 210400Z 16020G32KT 3500 SHRA BR FEW004 BKN006 BKN008 19/19 Q1001 TEMPO 3000 SHRA BR FEW003 BKN005
RJAA 210347Z 17019G31KT 2000 R16R/2000N R16L/P2000N +SHRA BR FEW004 BKN006 20/19 Q1001 WS R16L RMK 1ST004 7ST006 A2957
RJAA 210330Z 16024G35KT 4000 R16R/P2000N R16L/2000N SHRA BR FEW004 BKN006 20/19 Q1001 TEMPO 3000 SHRA BR FEW003 BKN005
RJAA 210321Z 16023G36KT 2000 R16R/P2000N R16L/2000N SHRA BR FEW004 BKN006 20/19 Q1001 RMK 1ST004 7ST006 A2957
RJAA 210300Z 16021G32KT 4500 SHRA BR FEW004 BKN006 20/19 Q1001 TEMPO 3000 SHRA BR FEW003 BKN005
RJAA 210230Z 17023G37KT 130V190 4000 SHRA BR FEW004 BKN006 19/19 Q1002 WS R16L TEMPO 3000 SHRA BR FEW003 BKN005
RJAA 210200Z 16022G32KT 130V200 4000 SHRA BR FEW004 BKN006 BKN007 19/19 Q1002 WS R16R TEMPO 2500 SHRA BR FEW003 BKN005 RMK 1ST004 6ST006 7ST007 A2960
RJAA 210149Z 16024G35KT 3200 SHRA BR FEW004 BKN006 BKN008 19/19 Q1002 WS R16R WS R16L RMK 1ST004 6ST006 7ST008 A2960
RJAA 210130Z 16023G38KT 2800 SHRA BR FEW005 BKN006 BKN008 19/19 Q1002 TEMPO FEW003 BKN005
RJAA 210100Z 16023G39KT 3000 SHRA BR FEW005 SCT006 BKN008 19/19 Q1002 WS R16R WS R16L TEMPO FEW003 BKN005 RMK 2ST005 4ST006 7ST008 A2961
RJAA 210030Z 16022G32KT 130V200 2200 R16R/2000N R16L/2000N SHRA BR FEW005 SCT006 BKN008 19/19 Q1003 WS R16L TEMPO FEW003 BKN005 RMK 2ST005 3ST006 7ST008 A2962
RJAA 210024Z 16021G34KT 2000 R16R/2000N R16L/2000N SHRA BR FEW005 BKN008 BKN010 19/18 Q1003 WS R16L RMK 2ST005 6ST008 7CU010 A2963
RJAA 210013Z 16021G39KT 2500 R16R/P2000N R16L/P2000N SHRA BR FEW005 BKN009 BKN010 19/18 Q1003 WS R16R WS R16L RMK 2ST005 6ST009 7CU010 A2963
RJAA 210000Z 16024G36KT 3000 R16R/P2000N R16L/P2000N SHRA BR FEW007 SCT009 BKN010 19/18 Q1003 WS R16R TEMPO FEW003 BKN005
RJAA 202346Z 16025G36KT 3000 R16R/2000N R16L/2000N -SHRA BR FEW008 BKN010 19/18 Q1003 WS R16R RMK 1ST008 7CU010 A2963
RJAA 202330Z 15024G34KT 4000 -SHRA BR FEW009 BKN011 19/18 Q1003 WS R16L TEMPO 3000 SHRA BR FEW005 BKN008
RJAA 202300Z 15022G35KT 7000 -SHRA FEW009 BKN012 19/18 Q1004 WS R16R WS R16L TEMPO 3500 SHRA BR FEW005 BKN008
RJAA 202241Z 15021G33KT 7000 -SHRA FEW009 BKN012 BKN015 19/18 Q1004 WS R16R WS R16L RMK 1ST009 5CU012 7CU015 A2965 WS PS MS 20KT OBS AT 2228Z ON FNA RWY16R 2800FT AND BLW IN DES B744 PAC752
RJAA 202230Z 15021KT 7000 -SHRA FEW009 BKN012 BKN015 20/18 Q1004 TEMPO 17027G40KT 3500 SHRA BR FEW003 BKN005 RMK 1ST009 5CU012 7CU015 A2966
RJAA 202200Z 16020G32KT 7000 -SHRA FEW008 BKN012 BKN020 20/18 Q1005 TEMPO 3500 SHRA BR FEW003 BKN005 RMK 1ST008 5CU012 7CU020 A2968
RJAA 202138Z 15019G40KT 7000 -SHRA FEW008 BKN010 BKN020 19/18 Q1005 RMK 1ST008 6CU010 7CU020 A2968
RJAA 202130Z 16019G29KT 130V190 8000 -SHRA FEW008 BKN010 BKN020 19/18 Q1005 WS R16R TEMPO 3500 SHRA BR FEW003 BKN005 RMK 1ST008 6CU010 7CU020 A2969 WS PS MS 10KT OBS AT 2119Z ON FNA RWY16R 2000FT AND BLW IN DES A330 THA640
RJAA 202100Z 16018G31KT 8000 FEW008 BKN010 BKN020 19/18 Q1005 TEMPO 4000 -SHRA BR FEW005 BKN008 RMK 1ST008 6CU010 7CU020 A2970
RJAA 202033Z 15018G28KT 9999 -SHRA FEW008 BKN010 19/18 Q1005 RMK 1ST008 7CU010 A2970
RJAA 202030Z 15017KT 9999 -SHRA FEW008 BKN010 19/18 Q1006 TEMPO 17018G28KT 4000 -SHRA BR FEW005 BKN008 RMK 1ST008 7CU010 A2971
RJAA 202000Z 15015KT 9999 FEW010 BKN012 BKN020 19/18 Q1006 TEMPO 17016G26KT 4000 -SHRA BR FEW005 BKN008
RJAA 201930Z 15015KT 9999 FEW010 BKN012 BKN020 19/17 Q1007 TEMPO 17016G26KT
RJAA 201900Z 16014KT 9999 FEW010 SCT015 BKN020 18/17 Q1007 TEMPO 17016G26KT RMK 1ST010 4CU015 7CU020 A2975
RJAA 201830Z 16014KT 9999 FEW008 SCT015 BKN020 18/17 Q1007 TEMPO 17016G26KT
RJAA 201800Z 16013KT 9999 FEW006 SCT010 BKN018 18/17 Q1008 TEMPO 17016G26KT FEW008 BKN012
RJAA 201730Z 15015KT 8000 FEW006 SCT010 BKN018 18/18 Q1009 TEMPO 17016G26KT 4000 -SHRA BR FEW005 BKN008 RMK 2ST006 4CU010 7CU018 A2979
RJAA 201700Z 15016KT 4000 -SHRA BR FEW006 SCT012 BKN020 18/18 Q1009 TEMPO 17016G26KT FEW005 BKN008
RJAA 201630Z 16013KT 8000 FEW010 SCT014 BKN045 19/17 Q1009 TEMPO FEW008 BKN013
RJAA 201600Z 16013KT 8000 -SHRA FEW010 SCT014 BKN070 19/17 Q1010 TEMPO FEW008 BKN013 RMK 1ST010 3CU014 7AC070 A2984
RJAA 201530Z 16013KT 9999 FEW015 BKN070 19/17 Q1010 NOSIG RMK 1CU015 7AC070 A2984
RJAA 201500Z 17012KT 9000 -SHRA FEW010 SCT015 BKN070 19/17 Q1011 NOSIG RMK 1ST010 3CU015 6AC070 A2986
RJAA 201430Z 17012KT 9000 -SHRA FEW010 SCT015 BKN120 19/17 Q1011 NOSIG RMK 1ST010 3CU015 6AC120 A2987
RJAA 201400Z 16013KT 9999 FEW015 SCT070 BKN110 19/17 Q1011 NOSIG RMK 1CU015 3AC070 7AC110 A2988
RJAA 201330Z 16013KT 9999 FEW015 SCT020 BKN070 19/16 Q1012 NOSIG RMK 1CU015 3CU020 7AC070 A2989
RJAA 201300Z 16011KT 9999 FEW020 BKN070 19/16 Q1013 NOSIG RMK 1CU020 7AC070 A2992
RJAA 201230Z 16013KT 9999 FEW020 BKN070 19/16 Q1013 NOSIG RMK 1CU020 7AC070 A2993
RJAA 201200Z 15012KT 9999 FEW020 BKN070 19/16 Q1013 NOSIG RMK 1CU020 7AC070 A2994
RJAA 201130Z 15014KT 9999 FEW020 BKN080 19/16 Q1014 NOSIG RMK 1CU020 7AC080 A2995
RJAA 201100Z 15014KT 9999 FEW020 BKN080 19/16 Q1014 NOSIG RMK 1CU020 7AC080 A2995
RJAA 201030Z 15014KT 9999 FEW020 BKN080 19/16 Q1014 NOSIG RMK 1CU020 7AC080 A2995
RJAA 201000Z 16013KT 9999 FEW020 BKN080 19/16 Q1014 NOSIG RMK 1CU020 7AC080 A2995
RJAA 200930Z 16012KT 9999 FEW020 BKN080 20/16 Q1014 NOSIG RMK 1CU020 7AC080 A2995
RJAA 200900Z 16014KT 9999 FEW020 BKN080 BKN/// 20/16 Q1014 NOSIG
RJAA 200830Z 16015KT 9999 FEW020 SCT080 BKN/// 20/16 Q1014 NOSIG
RJAA 200800Z 16016KT 9999 FEW020 BKN080 20/16 Q1014 TEMPO 16016G26KT RMK 2CU020 7AC080 A2996
RJAA 200732Z 16016G26KT 9999 FEW030 BKN080 BKN/// 21/16 Q1014 RMK 2CU030 5AC080 A2996
RJAA 200730Z 15017KT 9999 FEW030 BKN080 BKN/// 21/15 Q1014 WS R16L TEMPO 16016G28KT RMK 2CU030 5AC080 A2996
RJAA 200704Z 15015G26KT 120V200 9999 FEW020 SCT030 BKN080 22/16 Q1014 RMK 1CU020 3CU030 5AC080 A2997
RJAA 200700Z 16015KT 120V210 9999 FEW020 SCT030 BKN080 22/16 Q1014 TEMPO 16016G28KT RMK 1CU020 3CU030 5AC080 A2997
RJAA 200630Z 17014KT 120V210 9999 FEW020 SCT030 BKN080 22/16 Q1015 WS R16L TEMPO 16016G28KT RMK 1CU020 3CU030 7AC080 A2997
RJAA 200600Z 15017KT 9999 FEW020 BKN080 21/14 Q1015 TEMPO 16016G28KT
RJAA 200549Z 16016G26KT 130V200 9999 FEW020 SCT030 BKN080 21/15 Q1015 WS R16R WS R16L RMK 1CU020 3CU030 7AC080 A2998
RJAA 200530Z 16017KT 9999 FEW020 SCT030 BKN080 21/15 Q1015 WS R16L TEMPO 16016G28KT
RJAA 200500Z 16016G26KT 9999 FEW020 SCT030 BKN070 22/15 Q1015 WS R16R NOSIG RMK 1CU020 4CU030 7AC070 A3000
RJAA 200430Z 17013KT 130V200 9999 FEW020 SCT030 BKN080 22/16 Q1016 TEMPO 16018G28KT
RJAA 200402Z 17016G26KT 140V210 9999 FEW020 BKN030 BKN080 21/16 Q1016 RMK 1CU020 5CU030 7AC080 A3002
RJAA 200400Z 16018KT 9999 FEW020 BKN030 BKN080 21/16 Q1016 TEMPO 16018G28KT
RJAA 200339Z 16015G26KT 9999 FEW020 SCT030 BKN080 22/16 Q1016 RMK 1CU020 4CU030 7AC080 A3002
RJAA 200330Z 16014KT 130V200 9999 FEW020 SCT030 BKN080 22/16 Q1016 TEMPO 16016G26KT
RJAA 200300Z 17013G27KT 140V200 9999 -SHRA FEW020 SCT030 BKN070 22/15 Q1017 NOSIG RMK 2CU020 4CU030 7AC070 A3004
RJAA 200245Z 22010KT 140V240 9999 -SHRA FEW020 BKN040 BKN070 21/16 Q1017 RMK 2CU020 6CU040 7AC070 A3005
RJAA 200230Z 16016KT 9999 -SHRA FEW020 BKN040 BKN070 20/16 Q1017 TEMPO 16016G26KT
RJAA 200200Z 16015KT 140V200 9999 FEW030 SCT070 BKN/// 24/16 Q1017 TEMPO 16015G26KT
RJAA 200130Z 17013KT 130V210 9999 FEW030 SCT070 BKN/// 22/14 Q1017 NOSIG
RJAA 200100Z 15013KT 9999 FEW020 SCT030 BKN070 22/14 Q1017 TEMPO 16015G26KT RMK 1CU020 3CU030 6AC070 A3005
RJAA 200030Z 17013KT 9999 FEW020 SCT030 21/15 Q1017 NOSIG RMK 1CU020 4CU030 A3006
RJAA 200000Z 15013KT 120V190 9999 FEW020 SCT030 22/15 Q1018 NOSIG RMK 1CU020 3CU030 A3006
RJAA 192330Z 16010KT 120V210 9999 FEW025 SCT070 22/15 Q1018 NOSIG RMK 2CU025 4AC070 A3007
RJAA 192300Z 18009KT 150V210 9999 FEW020 BKN070 21/16 Q1018 NOSIG RMK 1CU020 6AC070 A3008
RJAA 192230Z 17006KT 120V210 9999 FEW025 BKN070 19/16 Q1019 BECMG 16016KT
RJAA 192200Z 17004KT 120V220 9999 FEW025 BKN070 19/16 Q1019 NOSIG RMK 1CU025 5AC070 A3011
RJAA 192130Z VRB02KT 9999 FEW025 SCT070 18/15 Q1019 BECMG 16006KT
RJAA 192100Z VRB01KT 9999 FEW025 SCT070 18/16 Q1019 BECMG 16006KT
RJAA 192030Z VRB01KT 9999 FEW025 SCT070 16/16 Q1020 BECMG 16006KT
RJAA 192000Z VRB01KT 9999 FEW020 SCT030 BKN070 16/15 Q1019 BECMG 16006KT RMK 1CU020 3CU030 6AC070 A3012
RJAA 191930Z 00000KT 9999 VCSH FEW030 BKN060 BKN070 16/15 Q1019 NOSIG RMK 2CU030 5SC060 7AC070 A3012
RJAA 191900Z 12001KT 9999 VCSH FEW030 SCT050 BKN070 16/15 Q1019 NOSIG RMK 2CU030 4SC050 7AC070 A3012
RJAA 191830Z VRB02KT 9999 -SHRA FEW012 BKN025 BKN060 16/15 Q1019 NOSIG RMK 1CU012 5CU025 7SC060 A3012
RJAA 191800Z 22004KT 8000 -SHRA FEW015 BKN025 BKN040 16/14 Q1020 NOSIG RMK 1CU015 5CU025 7SC040 A3012
RJAA 191730Z 22007KT 9999 -SHRA FEW020 SCT040 BKN050 16/14 Q1020 NOSIG RMK 1CU020 4CU040 7SC050 A3013
RJAA 191700Z 18006KT 9999 -SHRA FEW020 SCT040 BKN050 17/15 Q1020 NOSIG RMK 1CU020 3CU040 7SC050 A3013
RJAA 191630Z 15001KT 9999 FEW030 BKN060 16/15 Q1020 NOSIG RMK 2CU030 7SC060 A3014
RJAA 191600Z 19002KT 9999 FEW020 SCT030 16/15 Q1021 NOSIG RMK 1CU020 4CU030 A3015
RJAA 191530Z 14003KT 9999 FEW030 SCT060 15/14 Q1021 NOSIG RMK 1CU030 4SC060 A3015
RJAA 191500Z 12004KT 9999 FEW030 BKN060 16/15 Q1021 NOSIG RMK 1CU030 7SC060 A3016
RJAA 191430Z 14003KT 9999 FEW030 BKN060 16/15 Q1021 NOSIG RMK 1CU030 7SC060 A3017
RJAA 191400Z 16002KT 9999 FEW030 BKN060 17/15 Q1022 NOSIG RMK 1CU030 7SC060 A3018
RJAA 191330Z 12004KT 100V180 9999 VCSH FEW030 BKN060 17/15 Q1022 NOSIG RMK 2CU030 7SC060 A3019
RJAA 191300Z 14003KT 9999 VCSH FEW030 BKN060 16/14 Q1022 NOSIG RMK 2CU030 7SC060 A3019
RJAA 191230Z 15004KT 9999 FEW030 SCT060 15/14 Q1022 NOSIG RMK 2CU030 4SC060 A3020
RJAA 191200Z 15007KT 9999 FEW030 16/14 Q1022 NOSIG RMK 2CU030 A3019
RJAA 191130Z 16003KT 120V190 9999 FEW030 16/13 Q1022 NOSIG RMK 1CU030 A3019
RJAA 191100Z 14005KT 9999 FEW030 15/13 Q1022 NOSIG RMK 1CU030 A3018
RJAA 191030Z 15006KT 9999 FEW030 17/13 Q1022 NOSIG RMK 1CU030 A3018
RJAA 191000Z 14010KT 9999 FEW030 18/13 Q1021 NOSIG RMK 1CU030 A3017
RJAA 190930Z 14009KT 9999 FEW040 18/13 Q1022 NOSIG RMK 1CU040 A3018
RJAA 190900Z 14010KT 9999 FEW040 19/13 Q1022 NOSIG RMK 1CU040 A3018
RJAA 190830Z 15013KT 9999 FEW040 20/13 Q1021 NOSIG RMK 1CU040 A3017
RJAA 190800Z 16014KT 9999 FEW035 21/12 Q1021 NOSIG RMK 1CU035 A3017
RJAA 190730Z 14015KT 9999 FEW035 21/13 Q1021 NOSIG RMK 1CU035 A3017
RJAA 190700Z 15016KT 9999 FEW035 22/13 Q1021 NOSIG RMK 1CU035 A3016
RJAA 190630Z 14014KT 120V180 9999 FEW035 22/14 Q1021 NOSIG RMK 1CU035 A3016
RJAA 190600Z 15015KT 9999 FEW035 22/13 Q1021 NOSIG RMK 1CU035 A3017
RJAA 190530Z 14014KT 9999 FEW035 23/14 Q1021 NOSIG RMK 2CU035 A3017
RJAA 190520Z 15015G25KT 120V180 9999 FEW035 23/14 Q1021 RMK 2CU035 A3017
RJAA 190500Z 16015KT 130V200 9999 FEW035 23/14 Q1022 NOSIG RMK 2CU035 A3018
RJAA 190430Z 15017KT 120V180 9999 FEW035 23/14 Q1022 NOSIG RMK 2CU035 A3018
RJAA 190413Z 15015G25KT 120V190 9999 FEW035 SCT180 23/14 Q1022 RMK 2CU035 4AC180 A3018
RJAA 190400Z 14016KT 9999 FEW035 SCT180 23/13 Q1022 NOSIG RMK 2CU035 4AC180 A3018
RJAA 190330Z 14015KT 9999 FEW035 BKN180 23/13 Q1022 NOSIG RMK 2CU035 5AC180 A3020
RJAA 190300Z 16010KT 130V200 9999 FEW030 SCT050 BKN/// 22/13 Q1023 NOSIG
RJAA 190230Z 15010KT 120V180 9999 FEW030 BKN050 20/14 Q1023 NOSIG RMK 1CU030 6SC050 A3022
RJAA 190200Z 15012KT 9999 FEW030 BKN050 19/14 Q1023 NOSIG RMK 1CU030 5SC050 A3023
RJAA 190130Z 15012KT 120V200 9999 FEW025 SCT030 BKN/// 22/14 Q1023 NOSIG
RJAA 190100Z 14011KT 9999 FEW025 SCT030 22/14 Q1023 NOSIG RMK 1CU025 3CU030 A3022
RJAA 190030Z 16010KT 130V190 9999 FEW020 SCT030 BKN180 22/14 Q1023 NOSIG RMK 1CU020 3CU030 5AC180 A3022
RJAA 190000Z 15008KT 100V200 9999 FEW030 SCT180 BKN/// 21/13 Q1023 NOSIG
RJAA 182330Z 16010KT 140V200 9999 FEW030 BKN/// 20/13 Q1023 NOSIG